createdAt,value
2022-10-24T00:01:13.252Z,11.27
2022-10-24T00:03:39.808Z,6.40
2022-10-24T00:06:08.147Z,7.27
2022-10-24T00:08:36.530Z,7.53
2022-10-24T00:11:09.232Z,7.43
2022-10-24T00:13:35.748Z,7.80
2022-10-24T00:16:02.293Z,6.73
2022-10-24T00:18:29.165Z,7.00
2022-10-24T00:20:56.108Z,9.30
2022-10-24T00:23:22.681Z,8.20
2022-10-24T00:25:49.210Z,7.80
2022-10-24T00:28:15.718Z,7.07
2022-10-24T00:30:42.249Z,7.63
2022-10-24T00:33:08.837Z,7.03
2022-10-24T00:35:35.563Z,8.40
2022-10-24T00:38:02.090Z,10.27
2022-10-24T00:40:28.823Z,6.70
2022-10-24T00:42:55.323Z,7.07
2022-10-24T00:46:03.990Z,7.07
2022-10-24T00:48:41.755Z,6.10
2022-10-24T00:51:16.407Z,9.63
2022-10-24T00:53:47.683Z,3.07
2022-10-24T00:56:16.894Z,6.30
2022-10-24T00:58:45.069Z,3.93
2022-10-24T01:01:13.198Z,4.17
2022-10-24T01:03:40.059Z,4.63
2022-10-24T01:06:18.573Z,5.27
2022-10-24T01:09:06.347Z,7.07
2022-10-24T01:11:51.088Z,5.13
2022-10-24T01:14:50.579Z,4.50
2022-10-24T01:17:41.826Z,4.07
2022-10-24T01:20:28.751Z,4.97
2022-10-24T01:23:07.061Z,2.47
2022-10-24T01:25:38.528Z,5.93
2022-10-24T01:28:11.447Z,5.70
2022-10-24T01:30:55.854Z,3.10
2022-10-24T01:33:33.053Z,4.00
2022-10-24T01:36:13.697Z,5.10
2022-10-24T01:38:51.342Z,6.37
2022-10-24T01:41:21.522Z,4.87
2022-10-24T01:43:56.622Z,4.57
2022-10-24T01:46:27.720Z,5.20
2022-10-24T01:49:13.931Z,3.17
2022-10-24T01:51:41.886Z,3.23
2022-10-24T01:54:10.723Z,8.40
2022-10-24T01:56:37.348Z,3.60
2022-10-24T01:59:09.371Z,4.40
2022-10-24T02:01:39.052Z,4.33
2022-10-24T02:04:10.896Z,4.83
2022-10-24T02:06:41.619Z,5.93
2022-10-24T02:09:17.788Z,3.70
2022-10-24T02:11:47.835Z,4.33
2022-10-24T02:14:21.230Z,6.50
2022-10-24T02:16:48.000Z,4.27
2022-10-24T02:19:15.151Z,3.47
2022-10-24T02:22:09.690Z,3.97
2022-10-24T02:24:42.525Z,3.20
2022-10-24T02:27:31.132Z,3.43
2022-10-24T02:30:20.322Z,5.70
2022-10-24T02:32:59.008Z,7.77
2022-10-24T02:35:31.172Z,3.43
2022-10-24T02:38:04.632Z,5.50
2022-10-24T02:40:32.099Z,5.03
2022-10-24T02:43:00.354Z,7.67
2022-10-24T02:45:28.800Z,7.37
2022-10-24T02:48:00.149Z,3.03
2022-10-24T02:50:27.150Z,3.90
2022-10-24T02:52:53.698Z,3.17
2022-10-24T02:55:20.283Z,5.37
2022-10-24T02:57:46.820Z,4.30
2022-10-24T03:00:13.938Z,3.47
2022-10-24T03:02:40.535Z,4.37
2022-10-24T03:05:07.363Z,8.50
2022-10-24T03:07:33.959Z,5.53
2022-10-24T03:10:00.644Z,4.10
2022-10-24T03:12:27.284Z,5.30
2022-10-24T03:14:53.857Z,5.67
2022-10-24T03:17:21.858Z,5.07
2022-10-24T03:19:48.377Z,5.20
2022-10-24T03:22:15.243Z,4.17
2022-10-24T03:24:55.220Z,7.20
2022-10-24T03:27:22.560Z,7.20
2022-10-24T03:29:49.090Z,4.20
2022-10-24T03:32:15.718Z,4.63
2022-10-24T03:34:42.409Z,3.97
2022-10-24T03:37:08.905Z,2.77
2022-10-24T03:39:35.521Z,5.20
2022-10-24T03:42:02.425Z,4.60
2022-10-24T03:44:29.063Z,6.00
2022-10-24T03:46:55.639Z,3.50
2022-10-24T03:49:22.471Z,9.27
2022-10-24T03:51:49.013Z,9.63
2022-10-24T03:54:15.625Z,7.50
2022-10-24T03:56:45.885Z,7.00
2022-10-24T03:59:12.401Z,3.80
2022-10-24T04:01:39.081Z,5.47
2022-10-24T04:04:06.046Z,5.80
2022-10-24T04:06:35.593Z,6.60
2022-10-24T04:09:03.745Z,11.93
2022-10-24T04:11:30.475Z,10.07
2022-10-24T04:13:57.114Z,6.00
2022-10-24T04:16:24.140Z,4.30
2022-10-24T04:18:51.432Z,5.20
2022-10-24T04:21:21.592Z,4.53
2022-10-24T04:23:48.949Z,5.43
2022-10-24T04:26:16.888Z,3.47
2022-10-24T04:28:43.996Z,10.77
2022-10-24T04:31:10.512Z,4.13
2022-10-24T04:33:37.134Z,5.53
2022-10-24T04:36:04.027Z,7.33
2022-10-24T04:38:33.564Z,4.97
2022-10-24T04:41:01.005Z,4.87
2022-10-24T04:43:27.893Z,4.20
2022-10-24T04:45:54.435Z,5.73
2022-10-24T04:48:21.177Z,4.13
2022-10-24T04:50:48.337Z,5.50
2022-10-24T04:53:15.487Z,3.40
2022-10-24T04:55:42.281Z,5.83
2022-10-24T04:58:08.804Z,6.27
2022-10-24T05:00:35.382Z,5.00
2022-10-24T05:03:01.969Z,5.70
2022-10-24T05:05:28.566Z,5.93
2022-10-24T05:07:55.277Z,3.50
2022-10-24T05:10:21.921Z,3.83
2022-10-24T05:12:48.569Z,4.50
2022-10-24T05:15:15.273Z,3.50
2022-10-24T05:17:42.278Z,6.23
2022-10-24T05:20:09.450Z,3.67
2022-10-24T05:22:36.211Z,5.47
2022-10-24T05:25:03.109Z,4.07
2022-10-24T05:27:29.616Z,3.20
2022-10-24T05:29:56.271Z,4.53
2022-10-24T05:32:24.312Z,3.60
2022-10-24T05:34:51.107Z,3.00
2022-10-24T05:37:17.960Z,4.37
2022-10-24T05:39:44.657Z,3.43
2022-10-24T05:42:11.262Z,4.70
2022-10-24T05:44:38.263Z,4.50
2022-10-24T05:47:04.889Z,5.77
2022-10-24T05:49:31.532Z,2.43
2022-10-24T05:51:58.126Z,5.57
2022-10-24T05:54:30.098Z,4.23
2022-10-24T05:57:04.228Z,6.53
2022-10-24T05:59:30.917Z,4.77
2022-10-24T06:01:57.611Z,4.87
2022-10-24T06:04:24.232Z,5.30
2022-10-24T06:06:50.905Z,8.07
2022-10-24T06:09:17.469Z,3.57
2022-10-24T06:11:44.221Z,5.33
2022-10-24T06:14:11.266Z,5.87
2022-10-24T06:16:37.891Z,6.47
2022-10-24T06:19:04.418Z,4.30
2022-10-24T06:21:31.313Z,6.67
2022-10-24T06:23:57.949Z,4.20
2022-10-24T06:26:24.767Z,8.20
2022-10-24T06:28:51.684Z,6.00
2022-10-24T06:31:20.478Z,6.73
2022-10-24T06:33:47.467Z,6.07
2022-10-24T06:36:14.556Z,4.50
2022-10-24T06:38:41.377Z,4.93
2022-10-24T06:41:10.041Z,3.37
2022-10-24T06:43:37.740Z,8.53
2022-10-24T06:46:08.852Z,4.67
2022-10-24T06:48:36.258Z,7.13
2022-10-24T06:51:03.171Z,4.93
2022-10-24T06:53:29.862Z,5.83
2022-10-24T06:56:00.552Z,5.70
2022-10-24T06:58:31.594Z,7.27
2022-10-24T07:00:58.539Z,5.53
2022-10-24T07:03:25.451Z,11.17
2022-10-24T07:05:52.043Z,5.47
2022-10-24T07:08:19.738Z,6.17
2022-10-24T07:10:46.378Z,5.97
2022-10-24T07:13:12.971Z,6.03
2022-10-24T07:15:39.531Z,7.47
2022-10-24T07:18:06.051Z,5.67
2022-10-24T07:20:32.614Z,5.20
2022-10-24T07:22:59.159Z,5.93
2022-10-24T07:25:25.647Z,5.57
2022-10-24T07:27:54.744Z,14.20
2022-10-24T07:30:21.513Z,12.17
2022-10-24T07:32:48.810Z,15.03
2022-10-24T07:35:15.490Z,18.50
2022-10-24T07:37:42.184Z,19.27
2022-10-24T07:40:09.487Z,17.00
2022-10-24T07:42:36.038Z,6.20
2022-10-24T07:45:03.394Z,9.37
2022-10-24T07:47:30.251Z,9.27
2022-10-24T07:49:57.085Z,9.17
2022-10-24T07:52:23.822Z,5.67
2022-10-24T07:54:53.246Z,6.77
2022-10-24T07:57:20.370Z,6.03
2022-10-24T07:59:46.897Z,5.33
2022-10-24T08:02:14.765Z,5.60
2022-10-24T08:04:41.686Z,4.77
2022-10-24T08:07:13.298Z,3.33
2022-10-24T08:09:45.513Z,3.53
2022-10-24T08:12:12.055Z,4.67
2022-10-24T08:14:41.315Z,4.97
2022-10-24T08:17:08.161Z,4.47
2022-10-24T08:19:35.171Z,3.83
2022-10-24T08:22:02.397Z,3.80
2022-10-24T08:24:29.284Z,5.37
2022-10-24T08:26:58.561Z,4.97
2022-10-24T08:29:25.517Z,6.27
2022-10-24T08:31:53.776Z,3.77
2022-10-24T08:34:21.107Z,6.10
2022-10-24T08:36:48.697Z,6.33
2022-10-24T08:39:16.109Z,4.70
2022-10-24T08:41:46.883Z,3.40
2022-10-24T08:44:41.318Z,3.57
2022-10-24T08:47:32.684Z,6.27
2022-10-24T08:50:17.443Z,6.87
2022-10-24T08:52:49.366Z,4.60
2022-10-24T08:55:48.224Z,4.23
2022-10-24T08:58:20.026Z,6.53
2022-10-24T09:00:50.642Z,5.17
2022-10-24T09:03:51.119Z,4.97
2022-10-24T09:06:20.996Z,11.03
2022-10-24T09:08:52.549Z,4.83
2022-10-24T09:11:30.122Z,7.63
2022-10-24T09:13:57.829Z,7.33
2022-10-24T09:16:24.931Z,8.67
2022-10-24T09:18:54.369Z,15.97
2022-10-24T09:21:22.586Z,5.03
2022-10-24T09:23:50.730Z,7.20
2022-10-24T09:26:32.746Z,7.33
2022-10-24T09:28:59.415Z,7.13
2022-10-24T09:31:27.242Z,5.60
2022-10-24T09:33:56.702Z,3.30
2022-10-24T09:36:25.101Z,3.50
2022-10-24T09:38:51.958Z,5.30
2022-10-24T09:41:29.347Z,6.30
2022-10-24T09:43:58.702Z,5.33
2022-10-24T09:46:46.108Z,4.87
2022-10-24T09:49:12.570Z,2.97
2022-10-24T09:52:00.509Z,5.30
2022-10-24T09:54:30.420Z,7.17
2022-10-24T09:57:12.387Z,4.10
2022-10-24T09:59:44.208Z,2.93
2022-10-24T10:02:10.857Z,4.07
2022-10-24T10:04:38.890Z,5.93
2022-10-24T10:07:14.577Z,2.97
2022-10-24T10:09:54.107Z,4.40
2022-10-24T10:12:33.979Z,3.47
2022-10-24T10:15:27.101Z,5.13
2022-10-24T10:17:56.454Z,2.87
2022-10-24T10:20:28.112Z,2.80
2022-10-24T10:22:54.663Z,4.50
2022-10-24T10:25:31.900Z,6.10
2022-10-24T10:28:02.292Z,5.13
2022-10-24T10:30:29.731Z,5.43
2022-10-24T10:33:29.760Z,2.73
2022-10-24T10:36:14.985Z,3.47
2022-10-24T10:38:59.129Z,2.87
2022-10-24T10:41:42.176Z,2.00
2022-10-24T10:44:22.667Z,3.63
2022-10-24T10:47:14.299Z,2.23
2022-10-24T10:49:42.012Z,4.67
2022-10-24T10:52:29.872Z,5.60
2022-10-24T10:55:31.877Z,3.57
2022-10-24T10:58:23.408Z,5.07
2022-10-24T11:01:00.769Z,2.60
2022-10-24T11:04:06.135Z,1.97
2022-10-24T11:07:09.873Z,4.17
2022-10-24T11:09:59.352Z,12.20
2022-10-24T11:12:32.714Z,10.93
2022-10-24T11:15:08.348Z,3.00
2022-10-24T11:17:59.081Z,3.17
2022-10-24T11:20:31.893Z,2.50
2022-10-24T11:23:10.558Z,2.70
2022-10-24T11:25:44.535Z,2.93
2022-10-24T11:28:27.006Z,3.20
2022-10-24T11:31:00.895Z,2.33
2022-10-24T11:33:33.993Z,2.50
2022-10-24T11:36:14.696Z,1.40
2022-10-24T11:38:48.397Z,1.40
2022-10-24T11:41:23.884Z,1.30
2022-10-24T11:43:55.126Z,3.03
2022-10-24T11:46:36.542Z,7.93
2022-10-24T11:49:33.063Z,14.27
2022-10-24T11:52:12.705Z,3.53
2022-10-24T11:54:51.218Z,10.07
2022-10-24T11:57:25.778Z,4.00
2022-10-24T11:59:53.895Z,2.47
2022-10-24T12:02:26.779Z,3.60
2022-10-24T12:05:08.709Z,6.70
2022-10-24T12:08:00.853Z,2.00
2022-10-24T12:10:57.244Z,2.03
2022-10-24T12:13:40.030Z,2.23
2022-10-24T12:16:39.663Z,1.70
2022-10-24T12:19:12.905Z,2.93
2022-10-24T12:21:45.566Z,1.77
2022-10-24T12:24:41.690Z,2.70
2022-10-24T12:27:19.582Z,3.53
2022-10-24T12:29:59.689Z,3.50
2022-10-24T12:32:47.570Z,4.27
2022-10-24T12:35:31.322Z,2.57
2022-10-24T12:37:58.823Z,1.83
2022-10-24T12:40:46.578Z,2.47
2022-10-24T12:43:39.231Z,3.70
2022-10-24T12:46:15.875Z,3.97
2022-10-24T12:49:00.710Z,3.27
2022-10-24T12:51:31.803Z,4.07
2022-10-24T12:54:00.993Z,1.63
2022-10-24T12:56:28.434Z,5.67
2022-10-24T12:58:59.183Z,1.50
2022-10-24T13:01:35.402Z,5.33
2022-10-24T13:04:17.958Z,2.77
2022-10-24T13:07:13.174Z,2.13
2022-10-24T13:10:17.055Z,3.90
2022-10-24T13:13:01.759Z,3.03
2022-10-24T13:15:31.598Z,1.87
2022-10-24T13:18:12.964Z,2.13
2022-10-24T13:20:43.040Z,3.40
2022-10-24T13:23:28.611Z,2.73
2022-10-24T13:25:57.340Z,3.27
2022-10-24T13:28:23.874Z,2.30
2022-10-24T13:30:53.342Z,2.77
2022-10-24T13:33:37.916Z,2.03
2022-10-24T13:36:14.809Z,4.60
2022-10-24T13:38:46.917Z,2.97
2022-10-24T13:41:22.976Z,2.17
2022-10-24T13:43:53.103Z,3.07
2022-10-24T13:46:35.270Z,1.33
2022-10-24T13:49:03.188Z,3.60
2022-10-24T13:51:52.563Z,2.70
2022-10-24T13:54:26.114Z,2.27
2022-10-24T13:56:55.952Z,2.60
2022-10-24T13:59:33.505Z,2.47
2022-10-24T14:02:04.941Z,3.80
2022-10-24T14:04:32.396Z,1.63
2022-10-24T14:07:07.107Z,2.47
2022-10-24T14:09:42.466Z,1.80
2022-10-24T14:12:20.223Z,3.20
2022-10-24T14:14:49.658Z,2.23
2022-10-24T14:17:22.916Z,3.00
2022-10-24T14:19:55.527Z,2.23
2022-10-24T14:22:42.708Z,4.47
2022-10-24T14:25:44.706Z,3.93
2022-10-24T14:28:16.734Z,4.03
2022-10-24T14:30:56.530Z,3.80
2022-10-24T14:33:28.692Z,3.93
2022-10-24T14:35:58.457Z,3.17
2022-10-24T14:38:27.136Z,3.17
2022-10-24T14:41:06.657Z,2.90
2022-10-24T14:43:40.031Z,2.40
2022-10-24T14:46:12.699Z,3.37
2022-10-24T14:48:42.198Z,2.93
2022-10-24T14:51:16.694Z,3.40
2022-10-24T14:53:45.275Z,2.03
2022-10-24T14:56:29.503Z,2.63
2022-10-24T14:58:58.468Z,1.67
2022-10-24T15:01:25.817Z,3.53
2022-10-24T15:04:01.269Z,2.83
2022-10-24T15:06:41.779Z,3.67
2022-10-24T15:09:11.271Z,3.67
2022-10-24T15:11:47.786Z,2.30
2022-10-24T15:14:36.009Z,1.90
2022-10-24T15:17:18.878Z,2.23
2022-10-24T15:19:47.673Z,2.20
2022-10-24T15:22:35.780Z,1.90
2022-10-24T15:25:07.999Z,4.00
2022-10-24T15:27:43.922Z,4.57
2022-10-24T15:36:07.303Z,2.63
2022-10-24T15:38:36.629Z,1.43
2022-10-24T15:41:07.079Z,1.87
2022-10-24T15:43:34.810Z,2.60
2022-10-24T15:46:01.389Z,3.47
2022-10-24T15:48:27.935Z,3.80
2022-10-24T15:50:54.480Z,3.83
2022-10-24T15:53:21.938Z,2.43
2022-10-24T15:55:48.814Z,1.93
2022-10-24T15:58:17.276Z,2.00
2022-10-24T16:00:44.338Z,1.50
2022-10-24T16:03:17.395Z,2.43
2022-10-24T16:05:48.900Z,3.70
2022-10-24T16:08:18.918Z,2.30
2022-10-24T16:10:47.954Z,3.40
2022-10-24T16:13:15.147Z,5.23
2022-10-24T16:15:42.809Z,4.23
2022-10-24T16:18:10.563Z,8.47
2022-10-24T16:20:37.856Z,3.90
2022-10-24T16:23:05.539Z,2.17
2022-10-24T16:25:34.993Z,2.07
2022-10-24T16:28:02.126Z,2.63
2022-10-24T16:30:30.886Z,2.63
2022-10-24T16:32:57.526Z,3.13
2022-10-24T16:35:29.575Z,2.33
2022-10-24T16:37:58.177Z,3.67
2022-10-24T16:40:26.973Z,3.37
2022-10-24T16:42:55.572Z,2.10
2022-10-24T16:45:22.886Z,2.03
2022-10-24T16:47:50.074Z,2.40
2022-10-24T16:50:24.361Z,2.97
2022-10-24T16:52:56.008Z,3.37
2022-10-24T16:55:23.397Z,3.77
2022-10-24T16:57:50.383Z,2.30
2022-10-24T17:00:18.939Z,3.97
2022-10-24T17:02:48.498Z,3.63
2022-10-24T17:05:15.961Z,3.20
2022-10-24T17:07:43.287Z,4.10
2022-10-24T17:10:11.791Z,2.33
2022-10-24T17:12:40.957Z,4.13
2022-10-24T17:15:08.601Z,5.67
2022-10-24T17:17:35.359Z,3.03
2022-10-24T17:20:03.051Z,4.23
2022-10-24T17:22:29.798Z,3.23
2022-10-24T17:24:56.817Z,2.97
2022-10-24T17:27:24.138Z,5.97
2022-10-24T17:29:51.026Z,2.53
2022-10-24T17:32:17.870Z,2.30
2022-10-24T17:34:49.975Z,2.70
2022-10-24T17:37:24.697Z,2.77
2022-10-24T17:40:22.620Z,2.23
2022-10-24T17:42:49.753Z,5.20
2022-10-24T17:45:23.367Z,3.27
2022-10-24T17:47:50.053Z,2.47
2022-10-24T17:50:17.770Z,2.60
2022-10-24T17:52:50.286Z,1.90
2022-10-24T17:55:41.416Z,3.13
2022-10-24T17:58:08.988Z,2.33
2022-10-24T18:00:35.918Z,3.80
2022-10-24T18:03:02.973Z,4.67
2022-10-24T18:05:30.079Z,2.73
2022-10-24T18:07:57.914Z,3.00
2022-10-24T18:10:24.497Z,2.50
2022-10-24T18:12:51.406Z,4.10
2022-10-24T18:15:21.342Z,3.57
2022-10-24T18:17:48.648Z,4.60
2022-10-24T18:20:16.011Z,3.07
2022-10-24T18:22:44.184Z,4.43
2022-10-24T18:25:13.302Z,3.10
2022-10-24T18:27:40.997Z,3.63
2022-10-24T18:30:08.438Z,4.30
2022-10-24T18:32:35.279Z,2.80
2022-10-24T18:35:02.134Z,3.67
2022-10-24T18:37:29.670Z,3.43
2022-10-24T18:39:56.453Z,3.63
2022-10-24T18:42:48.335Z,3.97
2022-10-24T18:45:21.480Z,4.63
2022-10-24T18:47:49.569Z,3.00
2022-10-24T18:50:19.710Z,5.93
2022-10-24T18:52:49.814Z,3.80
2022-10-24T18:55:26.324Z,2.50
2022-10-24T18:57:53.350Z,3.40
2022-10-24T19:00:25.938Z,3.10
2022-10-24T19:03:01.394Z,7.80
2022-10-24T19:05:52.015Z,4.67
2022-10-24T19:08:23.709Z,3.40
2022-10-24T19:10:55.977Z,5.03
2022-10-24T19:13:24.528Z,3.90
2022-10-24T19:16:00.232Z,4.80
2022-10-24T19:18:30.459Z,4.70
2022-10-24T19:20:57.047Z,6.10
2022-10-24T19:23:24.768Z,3.53
2022-10-24T19:25:51.888Z,5.77
2022-10-24T19:28:19.903Z,5.07
2022-10-24T19:30:48.051Z,4.17
2022-10-24T19:33:16.429Z,4.30
2022-10-24T19:35:47.666Z,7.27
2022-10-24T19:38:18.149Z,4.00
2022-10-24T19:40:46.457Z,5.07
2022-10-24T19:43:13.830Z,6.30
2022-10-24T19:45:49.951Z,5.23
2022-10-24T19:48:22.590Z,4.00
2022-10-24T19:50:50.277Z,5.27
2022-10-24T19:53:16.939Z,6.27
2022-10-24T19:55:43.736Z,7.17
2022-10-24T19:58:12.687Z,6.80
2022-10-24T20:00:39.944Z,4.87
2022-10-24T20:03:06.696Z,6.03
2022-10-24T20:05:33.568Z,4.30
2022-10-24T20:08:00.097Z,5.53
2022-10-24T20:10:26.621Z,30.80
2022-10-24T20:12:53.175Z,10.23
2022-10-24T20:15:19.912Z,14.40
2022-10-24T20:17:46.837Z,9.70
2022-10-24T20:20:13.501Z,8.07
2022-10-24T20:22:40.039Z,13.33
2022-10-24T20:25:07.659Z,11.77
2022-10-24T20:27:34.250Z,6.73
2022-10-24T20:30:00.788Z,6.27
2022-10-24T20:32:27.287Z,8.10
2022-10-24T20:34:53.818Z,8.67
2022-10-24T20:37:20.314Z,6.57
2022-10-24T20:39:46.923Z,6.23
2022-10-24T20:42:13.497Z,7.83
2022-10-24T20:44:39.993Z,8.43
2022-10-24T20:47:06.508Z,8.57
2022-10-24T20:49:33.067Z,9.03
2022-10-24T20:51:59.663Z,9.37
2022-10-24T20:54:26.231Z,8.87
2022-10-24T20:56:52.801Z,10.13
2022-10-24T20:59:19.421Z,11.17
2022-10-24T21:01:46.146Z,14.27
2022-10-24T21:04:14.678Z,12.73
2022-10-24T21:06:43.759Z,18.67
2022-10-24T21:09:10.529Z,16.23
2022-10-24T21:11:38.519Z,28.70
2022-10-24T21:14:07.586Z,32.27
2022-10-24T21:16:34.929Z,24.80
2022-10-24T21:19:02.263Z,25.90
2022-10-24T21:21:29.199Z,26.43
2022-10-24T21:24:02.324Z,22.60
2022-10-24T21:26:35.042Z,17.77
2022-10-24T21:29:14.832Z,25.23
2022-10-24T21:31:51.910Z,18.90
2022-10-24T21:34:19.467Z,29.73
2022-10-24T21:36:46.464Z,22.80
2022-10-24T21:39:14.858Z,18.10
2022-10-24T21:41:41.860Z,36.27
2022-10-24T21:44:08.381Z,15.43
2022-10-24T21:46:35.141Z,21.57
2022-10-24T21:49:01.718Z,17.50
2022-10-24T21:51:30.550Z,11.90
2022-10-24T21:54:02.817Z,13.20
2022-10-24T21:56:32.231Z,9.63
2022-10-24T21:59:04.901Z,9.67
2022-10-24T22:01:34.364Z,9.30
2022-10-24T22:04:01.622Z,9.30
2022-10-24T22:06:29.876Z,8.47
2022-10-24T22:08:56.754Z,11.73
2022-10-24T22:11:25.729Z,12.43
2022-10-24T22:13:53.196Z,11.53
2022-10-24T22:16:22.627Z,13.77
2022-10-24T22:18:49.925Z,15.10
2022-10-24T22:21:24.496Z,11.73
2022-10-24T22:23:51.103Z,13.13
2022-10-24T22:26:18.011Z,13.30
2022-10-24T22:28:44.569Z,11.90
2022-10-24T22:31:13.976Z,11.60
2022-10-24T22:33:41.522Z,12.33
2022-10-24T22:36:27.171Z,12.47
2022-10-24T22:38:54.492Z,11.23
2022-10-24T22:41:22.409Z,12.00
2022-10-24T22:43:49.819Z,12.93
2022-10-24T22:46:38.005Z,12.67
2022-10-24T22:49:15.662Z,9.13
2022-10-24T22:51:42.460Z,11.00
2022-10-24T22:54:15.603Z,10.17
2022-10-24T22:56:42.696Z,8.60
2022-10-24T22:59:09.483Z,12.80
2022-10-24T23:01:53.995Z,9.00
2022-10-24T23:04:23.222Z,8.97
2022-10-24T23:07:18.400Z,9.07
2022-10-24T23:09:44.989Z,9.00
2022-10-24T23:12:16.034Z,11.87
2022-10-24T23:14:43.958Z,12.90
2022-10-24T23:17:14.115Z,11.37
2022-10-24T23:19:45.464Z,11.20
2022-10-24T23:22:23.488Z,13.37
2022-10-24T23:24:51.788Z,10.33
2022-10-24T23:27:24.293Z,11.37
2022-10-24T23:29:51.286Z,10.33
2022-10-24T23:32:25.459Z,9.70
2022-10-24T23:34:52.974Z,11.73
2022-10-24T23:37:37.303Z,10.43
2022-10-24T23:40:14.561Z,13.33
2022-10-24T23:42:41.529Z,12.43
2022-10-24T23:45:20.099Z,12.67
2022-10-24T23:47:50.020Z,9.63
2022-10-24T23:50:28.565Z,12.90
2022-10-24T23:53:23.325Z,10.60
2022-10-24T23:55:50.633Z,11.13
2022-10-24T23:58:17.731Z,10.27
